createdAt,value
2023-04-30T00:01:55.953Z,10.83
2023-04-30T00:04:25.694Z,10.90
2023-04-30T00:06:54.289Z,10.63
2023-04-30T00:09:25.107Z,11.10
2023-04-30T00:11:56.058Z,11.17
2023-04-30T00:14:25.600Z,12.13
2023-04-30T00:16:54.611Z,11.30
2023-04-30T00:19:23.725Z,11.60
2023-04-30T00:21:53.770Z,11.60
2023-04-30T00:24:23.528Z,11.70
2023-04-30T00:26:52.917Z,11.33
2023-04-30T00:29:24.052Z,11.20
2023-04-30T00:31:54.955Z,11.33
2023-04-30T00:34:26.376Z,11.50
2023-04-30T00:36:55.651Z,11.47
2023-04-30T00:39:25.717Z,11.37
2023-04-30T00:41:54.930Z,10.63
2023-04-30T00:44:25.626Z,11.03
2023-04-30T00:46:55.018Z,10.53
2023-04-30T00:49:24.957Z,10.73
2023-04-30T00:51:54.795Z,10.83
2023-04-30T00:54:24.577Z,11.40
2023-04-30T00:56:54.032Z,11.57
2023-04-30T00:59:25.337Z,10.47
2023-04-30T01:01:57.172Z,10.80
2023-04-30T01:04:26.718Z,10.57
2023-04-30T01:06:55.814Z,11.03
2023-04-30T01:09:25.968Z,11.40
2023-04-30T01:12:05.470Z,10.53
2023-04-30T01:14:50.305Z,10.10
2023-04-30T01:17:26.214Z,9.40
2023-04-30T01:19:56.330Z,10.70
2023-04-30T01:22:38.492Z,10.77
2023-04-30T01:25:27.671Z,10.80
2023-04-30T01:28:05.817Z,10.43
2023-04-30T01:30:37.205Z,10.83
2023-04-30T01:33:06.504Z,10.93
2023-04-30T01:36:10.651Z,10.67
2023-04-30T01:38:55.975Z,10.43
2023-04-30T01:41:36.887Z,10.87
2023-04-30T01:44:20.934Z,10.60
2023-04-30T01:46:59.492Z,9.83
2023-04-30T01:49:42.387Z,10.23
2023-04-30T01:52:19.590Z,10.40
2023-04-30T01:54:54.903Z,10.97
2023-04-30T01:57:36.270Z,12.30
2023-04-30T02:00:11.273Z,10.97
2023-04-30T02:02:44.011Z,11.17
2023-04-30T02:05:13.331Z,10.73
2023-04-30T02:07:45.213Z,12.03
2023-04-30T02:10:14.430Z,11.53
2023-04-30T02:12:44.090Z,11.63
2023-04-30T02:15:15.294Z,12.17
2023-04-30T02:17:44.938Z,12.13
2023-04-30T02:20:14.560Z,11.83
2023-04-30T02:22:45.018Z,11.70
2023-04-30T02:25:14.568Z,11.73
2023-04-30T02:27:43.746Z,11.50
2023-04-30T02:30:14.586Z,11.80
2023-04-30T02:32:43.304Z,12.40
2023-04-30T02:35:12.718Z,11.87
2023-04-30T02:37:42.040Z,11.90
2023-04-30T02:40:12.682Z,12.17
2023-04-30T02:42:41.587Z,12.30
2023-04-30T02:45:11.386Z,11.30
2023-04-30T02:47:42.033Z,12.93
2023-04-30T02:50:11.781Z,13.20
2023-04-30T02:52:40.760Z,13.03
2023-04-30T02:55:10.897Z,13.87
2023-04-30T02:57:40.183Z,12.53
2023-04-30T03:00:10.315Z,12.80
2023-04-30T03:02:41.545Z,13.73
2023-04-30T03:05:10.920Z,12.83
2023-04-30T03:07:41.021Z,13.03
2023-04-30T03:10:11.850Z,12.63
2023-04-30T03:12:41.565Z,12.13
2023-04-30T03:15:12.060Z,12.43
2023-04-30T03:17:44.589Z,11.23
2023-04-30T03:20:15.766Z,12.90
2023-04-30T03:22:44.669Z,12.43
2023-04-30T03:25:15.932Z,12.77
2023-04-30T03:27:44.996Z,12.23
2023-04-30T03:30:14.219Z,12.97
2023-04-30T03:32:44.820Z,12.17
2023-04-30T03:35:14.097Z,12.60
2023-04-30T03:37:42.984Z,12.97
2023-04-30T03:40:14.084Z,12.40
2023-04-30T03:42:43.953Z,12.53
2023-04-30T03:45:13.726Z,12.10
2023-04-30T03:47:46.270Z,12.17
2023-04-30T03:50:15.963Z,12.37
2023-04-30T03:52:44.981Z,11.90
2023-04-30T03:55:16.140Z,10.60
2023-04-30T03:57:45.378Z,11.67
2023-04-30T04:00:15.807Z,11.10
2023-04-30T04:02:51.738Z,10.63
2023-04-30T04:05:21.294Z,10.73
2023-04-30T04:07:50.997Z,11.27
2023-04-30T04:10:19.817Z,10.23
2023-04-30T04:12:48.858Z,10.80
2023-04-30T04:15:18.254Z,10.20
2023-04-30T04:17:47.754Z,10.60
2023-04-30T04:20:18.395Z,10.50
2023-04-30T04:22:47.528Z,10.07
2023-04-30T04:25:18.653Z,9.70
2023-04-30T04:27:47.614Z,10.17
2023-04-30T04:30:17.629Z,10.23
2023-04-30T04:32:50.684Z,10.47
2023-04-30T04:35:21.752Z,9.07
2023-04-30T04:37:50.980Z,9.13
2023-04-30T04:40:20.302Z,10.40
2023-04-30T04:42:51.662Z,10.20
2023-04-30T04:45:21.342Z,8.80
2023-04-30T04:47:52.332Z,9.63
2023-04-30T04:50:25.389Z,10.00
2023-04-30T04:52:54.240Z,8.57
2023-04-30T04:55:25.575Z,8.67
2023-04-30T04:57:54.884Z,8.17
2023-04-30T05:00:24.174Z,8.10
2023-04-30T05:02:53.751Z,8.37
2023-04-30T05:05:24.275Z,7.97
2023-04-30T05:07:55.279Z,7.70
2023-04-30T05:10:28.511Z,8.53
2023-04-30T05:12:58.138Z,8.47
2023-04-30T05:15:26.985Z,7.97
2023-04-30T05:17:56.165Z,7.20
2023-04-30T05:20:27.757Z,7.80
2023-04-30T05:22:56.809Z,8.23
2023-04-30T05:25:26.227Z,8.17
2023-04-30T05:27:54.823Z,7.27
2023-04-30T05:30:23.997Z,7.53
2023-04-30T05:32:53.331Z,8.00
2023-04-30T05:35:21.915Z,7.57
2023-04-30T05:37:52.980Z,7.50
2023-04-30T05:40:22.272Z,7.73
2023-04-30T05:42:51.159Z,7.73
2023-04-30T05:45:20.437Z,7.77
2023-04-30T05:47:49.881Z,8.20
2023-04-30T05:50:19.108Z,7.70
2023-04-30T05:52:48.403Z,7.03
2023-04-30T05:55:19.612Z,7.37
2023-04-30T05:57:49.017Z,7.37
2023-04-30T06:00:18.677Z,7.30
2023-04-30T06:02:48.055Z,7.23
2023-04-30T06:05:18.568Z,7.30
2023-04-30T06:07:48.047Z,6.93
2023-04-30T06:10:17.280Z,8.10
2023-04-30T06:12:47.504Z,6.37
2023-04-30T06:15:16.652Z,7.60
2023-04-30T06:17:45.379Z,6.80
2023-04-30T06:20:15.314Z,6.20
2023-04-30T06:22:44.389Z,6.87
2023-04-30T06:25:14.328Z,5.80
2023-04-30T06:27:43.289Z,6.60
2023-04-30T06:30:16.257Z,6.47
2023-04-30T06:32:45.381Z,5.63
2023-04-30T06:35:14.472Z,5.53
2023-04-30T06:37:43.586Z,6.00
2023-04-30T06:40:13.414Z,6.87
2023-04-30T06:42:42.744Z,6.57
2023-04-30T06:45:15.942Z,6.33
2023-04-30T06:47:46.556Z,5.60
2023-04-30T06:50:16.405Z,5.77
2023-04-30T06:52:45.256Z,6.77
2023-04-30T06:55:14.740Z,6.50
2023-04-30T06:57:44.184Z,5.87
2023-04-30T07:00:17.052Z,5.97
2023-04-30T07:02:48.338Z,5.83
2023-04-30T07:05:17.560Z,5.53
2023-04-30T07:07:46.787Z,6.00
2023-04-30T07:10:16.264Z,5.53
2023-04-30T07:12:44.921Z,6.77
2023-04-30T07:15:17.012Z,5.87
2023-04-30T07:17:46.362Z,5.93
2023-04-30T07:20:16.491Z,5.90
2023-04-30T07:22:46.451Z,5.07
2023-04-30T07:25:15.734Z,5.30
2023-04-30T07:27:45.547Z,5.60
2023-04-30T07:30:15.921Z,5.23
2023-04-30T07:32:45.402Z,5.20
2023-04-30T07:35:14.889Z,5.13
2023-04-30T07:37:44.364Z,5.10
2023-04-30T07:40:22.027Z,5.20
2023-04-30T07:42:53.944Z,5.40
2023-04-30T07:45:24.696Z,6.07
2023-04-30T07:47:54.185Z,5.83
2023-04-30T07:50:23.485Z,7.33
2023-04-30T07:52:52.392Z,8.93
2023-04-30T07:55:21.360Z,6.60
2023-04-30T07:57:50.208Z,5.83
2023-04-30T08:00:18.771Z,5.33
2023-04-30T08:02:50.176Z,4.57
2023-04-30T08:05:19.303Z,6.20
2023-04-30T08:07:47.962Z,4.50
2023-04-30T08:10:17.337Z,4.67
2023-04-30T08:12:46.055Z,4.93
2023-04-30T08:15:14.690Z,5.73
2023-04-30T08:17:43.226Z,6.33
2023-04-30T08:20:14.284Z,4.20
2023-04-30T08:22:43.147Z,3.97
2023-04-30T08:25:13.129Z,3.80
2023-04-30T08:27:41.921Z,4.30
2023-04-30T08:30:11.712Z,3.97
2023-04-30T08:32:41.758Z,4.53
2023-04-30T08:35:13.336Z,3.73
2023-04-30T08:37:43.014Z,4.83
2023-04-30T08:40:13.299Z,4.13
2023-04-30T08:42:50.036Z,4.33
2023-04-30T08:45:21.200Z,3.53
2023-04-30T08:47:51.997Z,3.83
2023-04-30T08:50:22.840Z,3.72
2023-04-30T08:52:52.117Z,4.00
2023-04-30T08:55:21.727Z,3.88
2023-04-30T08:57:53.290Z,3.60
2023-04-30T09:00:24.600Z,3.38
2023-04-30T09:02:54.409Z,3.80
2023-04-30T09:05:24.634Z,3.70
2023-04-30T09:08:03.074Z,2.90
2023-04-30T09:10:35.747Z,3.00
2023-04-30T09:13:06.941Z,2.30
2023-04-30T09:15:37.584Z,2.80
2023-04-30T09:18:11.997Z,2.45
2023-04-30T09:20:57.706Z,2.67
2023-04-30T09:23:27.171Z,2.75
2023-04-30T09:25:57.149Z,2.20
2023-04-30T09:28:27.715Z,2.40
2023-04-30T09:30:58.463Z,2.95
2023-04-30T09:33:27.114Z,2.53
2023-04-30T09:35:57.890Z,2.72
2023-04-30T09:38:29.690Z,3.13
2023-04-30T09:41:01.512Z,2.70
2023-04-30T09:43:31.249Z,2.45
2023-04-30T09:46:01.161Z,2.20
2023-04-30T09:48:30.451Z,2.60
2023-04-30T09:51:05.391Z,3.15
2023-04-30T09:53:39.221Z,3.03
2023-04-30T09:56:09.773Z,2.42
2023-04-30T09:58:39.367Z,2.30
2023-04-30T10:01:11.815Z,2.20
2023-04-30T10:03:43.188Z,1.95
2023-04-30T10:06:15.974Z,2.35
2023-04-30T10:08:47.706Z,2.13
2023-04-30T10:11:22.022Z,2.45
2023-04-30T10:13:56.838Z,2.25
2023-04-30T10:16:34.704Z,1.98
2023-04-30T10:19:09.630Z,1.88
2023-04-30T10:21:44.836Z,2.00
2023-04-30T10:24:17.014Z,2.22
2023-04-30T10:26:48.485Z,2.42
2023-04-30T10:29:18.531Z,2.45
2023-04-30T10:31:50.122Z,2.00
2023-04-30T10:34:30.686Z,1.90
2023-04-30T10:37:06.660Z,2.25
2023-04-30T10:39:37.237Z,2.03
2023-04-30T10:42:09.827Z,2.20
2023-04-30T10:44:40.111Z,2.08
2023-04-30T10:47:10.171Z,4.60
2023-04-30T10:49:39.111Z,8.40
2023-04-30T10:52:09.414Z,3.40
2023-04-30T10:54:41.006Z,4.80
2023-04-30T10:57:14.950Z,3.72
2023-04-30T10:59:56.143Z,1.85
2023-04-30T11:02:40.215Z,2.35
2023-04-30T11:05:16.975Z,2.10
2023-04-30T11:07:51.559Z,2.80
2023-04-30T11:10:27.793Z,2.80
2023-04-30T11:12:58.929Z,1.90
2023-04-30T11:15:35.626Z,1.90
2023-04-30T11:18:06.157Z,1.70
2023-04-30T11:20:35.471Z,2.17
2023-04-30T11:23:15.514Z,1.95
2023-04-30T11:25:46.671Z,1.77
2023-04-30T11:28:18.641Z,1.83
2023-04-30T11:30:58.426Z,1.88
2023-04-30T11:33:29.708Z,1.85
2023-04-30T11:36:00.441Z,1.75
2023-04-30T11:38:32.756Z,1.35
2023-04-30T11:41:02.574Z,1.55
2023-04-30T11:43:32.664Z,2.08
2023-04-30T11:46:04.392Z,1.67
2023-04-30T11:48:34.065Z,1.75
2023-04-30T11:51:06.886Z,1.65
2023-04-30T11:53:37.562Z,1.50
2023-04-30T11:56:07.457Z,1.75
2023-04-30T11:58:39.639Z,1.52
2023-04-30T12:01:12.003Z,2.13
2023-04-30T12:03:45.759Z,2.20
2023-04-30T12:06:23.683Z,1.85
2023-04-30T12:09:01.864Z,2.60
2023-04-30T12:11:32.576Z,1.60
2023-04-30T12:14:04.710Z,2.08
2023-04-30T12:16:43.395Z,1.80
2023-04-30T12:19:13.506Z,1.65
2023-04-30T12:21:45.540Z,1.70
2023-04-30T12:24:16.941Z,1.73
2023-04-30T12:26:48.409Z,1.40
2023-04-30T12:29:20.485Z,1.63
2023-04-30T12:31:52.852Z,1.85
2023-04-30T12:34:22.454Z,1.65
2023-04-30T12:36:52.285Z,1.77
2023-04-30T12:39:22.900Z,1.25
2023-04-30T12:41:52.448Z,1.48
2023-04-30T12:44:23.897Z,1.65
2023-04-30T12:46:56.678Z,1.40
2023-04-30T12:49:30.502Z,1.52
2023-04-30T12:52:02.911Z,1.60
2023-04-30T12:54:35.318Z,1.50
2023-04-30T12:57:06.666Z,1.52
2023-04-30T12:59:38.631Z,1.48
2023-04-30T13:02:09.337Z,1.95
2023-04-30T13:04:39.676Z,1.40
2023-04-30T13:07:08.698Z,1.73
2023-04-30T13:09:41.156Z,1.20
2023-04-30T13:12:10.844Z,1.63
2023-04-30T13:14:40.293Z,1.60
2023-04-30T13:17:10.367Z,1.40
2023-04-30T13:19:39.062Z,1.48
2023-04-30T13:22:07.847Z,1.50
2023-04-30T13:24:39.911Z,1.38
2023-04-30T13:27:10.425Z,1.27
2023-04-30T13:29:39.519Z,1.40
2023-04-30T13:32:10.434Z,1.67
2023-04-30T13:34:40.950Z,1.50
2023-04-30T13:37:10.433Z,1.60
2023-04-30T13:39:39.356Z,1.70
2023-04-30T13:42:10.419Z,1.42
2023-04-30T13:44:40.272Z,1.45
2023-04-30T13:47:11.076Z,1.45
2023-04-30T13:49:40.761Z,1.45
2023-04-30T13:52:10.141Z,1.60
2023-04-30T13:54:44.901Z,1.35
2023-04-30T13:57:16.208Z,1.60
2023-04-30T13:59:45.894Z,1.70
2023-04-30T14:02:15.064Z,1.58
2023-04-30T14:04:54.692Z,1.60
2023-04-30T14:07:27.771Z,1.60
2023-04-30T14:09:56.855Z,1.95
2023-04-30T14:12:27.663Z,2.03
2023-04-30T14:14:57.125Z,1.40
2023-04-30T14:17:27.221Z,1.60
2023-04-30T14:20:01.701Z,1.80
2023-04-30T14:22:31.830Z,1.80
2023-04-30T14:25:01.182Z,1.60
2023-04-30T14:27:31.654Z,1.77
2023-04-30T14:30:01.288Z,2.42
2023-04-30T14:32:30.577Z,4.57
2023-04-30T14:34:59.798Z,2.65
2023-04-30T14:37:29.663Z,5.95
2023-04-30T14:39:59.204Z,9.88
2023-04-30T14:42:31.068Z,3.40
2023-04-30T14:45:05.166Z,4.60
2023-04-30T14:47:35.496Z,2.75
2023-04-30T14:50:05.002Z,2.83
2023-04-30T14:52:34.065Z,3.05
2023-04-30T14:55:04.417Z,1.95
2023-04-30T14:57:34.787Z,4.45
2023-04-30T15:00:07.193Z,4.10
2023-04-30T15:02:37.198Z,6.15
2023-04-30T15:05:09.656Z,3.15
2023-04-30T15:07:39.170Z,1.90
2023-04-30T15:10:10.096Z,2.28
2023-04-30T15:12:40.001Z,1.83
2023-04-30T15:15:12.400Z,1.50
2023-04-30T15:17:42.735Z,1.90
2023-04-30T15:20:12.472Z,1.50
2023-04-30T15:22:42.614Z,1.77
2023-04-30T15:25:11.906Z,2.15
2023-04-30T15:27:41.892Z,2.20
2023-04-30T15:30:12.940Z,1.65
2023-04-30T15:32:42.399Z,1.70
2023-04-30T15:35:11.958Z,1.80
2023-04-30T15:37:40.613Z,1.75
2023-04-30T15:40:14.468Z,1.52
2023-04-30T15:42:43.448Z,1.30
2023-04-30T15:45:13.957Z,1.80
2023-04-30T15:47:42.561Z,1.50
2023-04-30T15:50:12.176Z,2.00
2023-04-30T15:52:41.584Z,2.15
2023-04-30T15:55:11.205Z,2.00
2023-04-30T15:57:40.369Z,1.77
2023-04-30T16:00:11.468Z,2.53
2023-04-30T16:02:45.410Z,1.73
2023-04-30T16:05:14.560Z,1.75
2023-04-30T16:07:45.133Z,2.22
2023-04-30T16:10:14.953Z,1.92
2023-04-30T16:12:44.260Z,2.35
2023-04-30T16:15:13.477Z,2.00
2023-04-30T16:17:44.009Z,1.95
2023-04-30T16:20:15.044Z,1.95
2023-04-30T16:22:44.281Z,1.90
2023-04-30T16:25:13.056Z,1.85
2023-04-30T16:27:44.002Z,2.10
2023-04-30T16:30:13.596Z,2.72
2023-04-30T16:32:44.704Z,2.30
2023-04-30T16:35:13.627Z,2.05
2023-04-30T16:37:42.732Z,1.98
2023-04-30T16:40:13.316Z,2.17
2023-04-30T16:42:42.268Z,1.60
2023-04-30T16:45:12.059Z,3.00
2023-04-30T16:47:41.118Z,2.00
2023-04-30T16:50:12.614Z,1.73
2023-04-30T16:52:41.459Z,2.30
2023-04-30T16:55:11.234Z,2.33
2023-04-30T16:57:39.835Z,1.92
2023-04-30T17:00:11.885Z,3.25
2023-04-30T17:02:41.206Z,2.03
2023-04-30T17:05:12.122Z,2.30
2023-04-30T17:07:41.542Z,2.13
2023-04-30T17:10:11.629Z,2.57
2023-04-30T17:12:41.320Z,1.65
2023-04-30T17:15:11.113Z,1.70
2023-04-30T17:17:40.073Z,1.63
2023-04-30T17:20:12.505Z,1.93
2023-04-30T17:22:41.890Z,1.80
2023-04-30T17:25:11.926Z,1.97
2023-04-30T17:27:41.855Z,1.60
2023-04-30T17:30:11.548Z,1.67
2023-04-30T17:32:40.661Z,2.00
2023-04-30T17:35:11.146Z,1.60
2023-04-30T17:37:42.765Z,2.00
2023-04-30T17:40:13.258Z,1.57
2023-04-30T17:42:42.441Z,2.00
2023-04-30T17:45:12.181Z,2.07
2023-04-30T17:47:41.161Z,1.97
2023-04-30T17:50:12.003Z,2.07
2023-04-30T17:52:42.175Z,2.13
2023-04-30T17:55:13.419Z,2.03
2023-04-30T17:57:42.743Z,2.13
2023-04-30T18:00:12.693Z,2.43
2023-04-30T18:02:44.886Z,1.90
2023-04-30T18:05:15.895Z,2.50
2023-04-30T18:07:46.601Z,1.83
2023-04-30T18:10:15.355Z,2.10
2023-04-30T18:12:44.299Z,1.93
2023-04-30T18:15:15.490Z,2.83
2023-04-30T18:17:46.973Z,2.10
2023-04-30T18:20:17.303Z,2.50
2023-04-30T18:22:46.596Z,2.50
2023-04-30T18:25:17.805Z,2.20
2023-04-30T18:27:46.655Z,2.50
2023-04-30T18:30:15.902Z,2.77
2023-04-30T18:32:44.780Z,2.47
2023-04-30T18:35:13.508Z,2.97
2023-04-30T18:37:43.779Z,2.87
2023-04-30T18:40:13.436Z,2.90
2023-04-30T18:42:42.781Z,2.73
2023-04-30T18:45:12.018Z,3.00
2023-04-30T18:47:41.521Z,2.63
2023-04-30T18:50:15.657Z,3.20
2023-04-30T18:52:46.776Z,3.47
2023-04-30T18:55:15.457Z,3.70
2023-04-30T18:57:45.136Z,3.50
2023-04-30T19:00:16.013Z,4.20
2023-04-30T19:02:44.941Z,3.43
2023-04-30T19:05:14.456Z,3.40
2023-04-30T19:07:43.668Z,3.97
2023-04-30T19:10:14.462Z,3.63
2023-04-30T19:12:45.020Z,3.70
2023-04-30T19:15:15.114Z,3.70
2023-04-30T19:17:44.554Z,3.63
2023-04-30T19:20:14.831Z,4.03
2023-04-30T19:22:44.143Z,3.50
2023-04-30T19:25:14.528Z,4.70
2023-04-30T19:27:44.272Z,4.67
2023-04-30T19:30:14.809Z,7.50
2023-04-30T19:32:43.548Z,4.33
2023-04-30T19:35:12.825Z,3.90
2023-04-30T19:37:41.803Z,4.40
2023-04-30T19:40:12.449Z,3.93
2023-04-30T19:42:43.234Z,4.60
2023-04-30T19:45:12.921Z,4.90
2023-04-30T19:47:42.268Z,5.00
2023-04-30T19:50:11.916Z,5.37
2023-04-30T19:52:40.664Z,5.20
2023-04-30T19:55:15.647Z,6.33
2023-04-30T19:57:46.780Z,5.90
2023-04-30T20:00:16.701Z,6.10
2023-04-30T20:02:46.108Z,6.13
2023-04-30T20:05:15.248Z,5.97
2023-04-30T20:07:44.920Z,6.20
2023-04-30T20:10:14.057Z,6.00
2023-04-30T20:12:43.346Z,6.27
2023-04-30T20:15:15.444Z,5.27
2023-04-30T20:17:44.394Z,6.10
2023-04-30T20:20:14.438Z,6.10
2023-04-30T20:22:43.264Z,6.60
2023-04-30T20:25:12.119Z,9.43
2023-04-30T20:27:40.900Z,9.30
2023-04-30T20:30:11.329Z,7.50
2023-04-30T20:32:42.901Z,6.00
2023-04-30T20:35:11.896Z,6.23
2023-04-30T20:37:40.326Z,5.97
2023-04-30T20:40:10.664Z,6.63
2023-04-30T20:42:40.929Z,5.77
2023-04-30T20:45:11.684Z,6.63
2023-04-30T20:47:42.616Z,7.23
2023-04-30T20:50:12.265Z,7.57
2023-04-30T20:52:41.559Z,6.93
2023-04-30T20:55:11.319Z,6.67
2023-04-30T20:57:40.635Z,6.53
2023-04-30T21:00:10.754Z,7.60
2023-04-30T21:02:39.655Z,7.10
2023-04-30T21:05:11.596Z,7.67
2023-04-30T21:07:40.638Z,8.20
2023-04-30T21:10:10.273Z,7.20
2023-04-30T21:12:39.003Z,7.67
2023-04-30T21:15:09.395Z,7.03
2023-04-30T21:17:38.094Z,7.40
2023-04-30T21:20:07.791Z,7.37
2023-04-30T21:22:37.823Z,7.93
2023-04-30T21:25:08.131Z,7.17
2023-04-30T21:27:39.939Z,7.50
2023-04-30T21:30:11.011Z,7.37
2023-04-30T21:32:39.711Z,8.40
2023-04-30T21:35:08.941Z,8.03
2023-04-30T21:37:39.932Z,7.40
2023-04-30T21:40:09.924Z,7.60
2023-04-30T21:42:38.794Z,7.30
2023-04-30T21:45:09.639Z,7.40
2023-04-30T21:47:38.474Z,7.47
2023-04-30T21:50:09.016Z,7.70
2023-04-30T21:52:38.963Z,7.17
2023-04-30T21:55:09.896Z,8.23
2023-04-30T21:57:38.379Z,7.43
2023-04-30T22:00:08.840Z,7.07
2023-04-30T22:02:38.203Z,8.57
2023-04-30T22:05:07.404Z,8.00
2023-04-30T22:07:36.636Z,8.17
2023-04-30T22:10:08.201Z,8.07
2023-04-30T22:12:37.342Z,9.77
2023-04-30T22:15:06.695Z,8.03
2023-04-30T22:17:35.488Z,8.57
2023-04-30T22:20:04.330Z,10.13
2023-04-30T22:22:33.169Z,10.37
2023-04-30T22:25:02.242Z,10.40
2023-04-30T22:27:33.195Z,9.20
2023-04-30T22:30:01.791Z,9.63
2023-04-30T22:32:30.891Z,9.27
2023-04-30T22:34:59.554Z,9.17
2023-04-30T22:37:28.681Z,9.60
2023-04-30T22:39:57.568Z,9.70
2023-04-30T22:42:26.869Z,9.53
2023-04-30T22:44:58.179Z,10.63
2023-04-30T22:47:29.376Z,10.53
2023-04-30T22:49:58.737Z,10.63
2023-04-30T22:52:27.783Z,10.47
2023-04-30T22:54:56.830Z,9.90
2023-04-30T22:57:25.682Z,9.60
2023-04-30T22:59:54.703Z,9.30
2023-04-30T23:02:26.526Z,9.63
2023-04-30T23:04:55.470Z,8.73
2023-04-30T23:07:24.046Z,9.00
2023-04-30T23:09:52.888Z,9.07
2023-04-30T23:12:22.839Z,9.60
2023-04-30T23:14:52.100Z,9.40
2023-04-30T23:17:20.902Z,8.73
2023-04-30T23:19:50.859Z,10.10
2023-04-30T23:22:19.473Z,9.70
2023-04-30T23:24:48.387Z,9.47
2023-04-30T23:27:17.811Z,10.47
2023-04-30T23:29:46.448Z,10.37
2023-04-30T23:32:15.491Z,10.63
2023-04-30T23:34:44.231Z,10.33
2023-04-30T23:37:14.952Z,9.87
2023-04-30T23:39:44.895Z,9.53
2023-04-30T23:42:13.674Z,8.83
2023-04-30T23:44:42.622Z,9.10
2023-04-30T23:47:11.101Z,9.10
2023-04-30T23:49:39.691Z,9.03
2023-04-30T23:52:10.582Z,9.10
2023-04-30T23:54:40.934Z,9.43
2023-04-30T23:57:19.185Z,10.30
2023-04-30T23:59:48.640Z,9.37
